Alba, Michigan
Current Conditions -  °F | °C
As of 2:15 PM on Thursday 18 Dec 2014 (Local Time) from KACB Reporting Station
Clear Clear  
Wind Chill: -3°   Ceiling: Unl
Heat Index: -3°   Visibility: 10mi
Dew Point: -7°   Wind: 0mph
Humidity: 71%   Direction: NA
Pressure: 30.2"   Gusts: NA
Location:  44.97°N, 84.97°W
Report Text: KACB 181915Z AUTO 00000KT 10SM CLR M03/M07 A3020 RMK AO2 T10271073
Loading
Personal Weather Stations






























Interactive Weather Map New forecast layout! Learn more

10-Day Weather Forecast

Advertisements
Track Severe Weather on mobile